createdAt,value
2019-02-22T00:02:15.474Z,80.30
2019-02-22T00:04:43.505Z,73.90
2019-02-22T00:07:11.471Z,74.50
2019-02-22T00:09:49.161Z,75.77
2019-02-22T00:12:09.143Z,74.43
2019-02-22T00:14:37.425Z,76.83
2019-02-22T00:17:05.387Z,75.57
2019-02-22T00:19:33.375Z,76.70
2019-02-22T00:22:01.461Z,77.00
2019-02-22T00:24:29.407Z,78.40
2019-02-22T00:26:57.360Z,75.13
2019-02-22T00:29:25.358Z,73.00
2019-02-22T00:31:53.339Z,74.17
2019-02-22T00:34:21.404Z,77.00
2019-02-22T00:36:49.492Z,77.37
2019-02-22T00:39:17.426Z,82.33
2019-02-22T00:41:45.398Z,78.60
2019-02-22T00:44:13.394Z,80.60
2019-02-22T00:46:41.442Z,77.90
2019-02-22T00:49:09.435Z,77.67
2019-02-22T00:51:37.377Z,76.50
2019-02-22T00:54:05.375Z,77.70
2019-02-22T00:56:33.384Z,77.20
2019-02-22T00:59:01.418Z,79.40
2019-02-22T01:01:29.789Z,79.17
2019-02-22T01:03:57.856Z,79.90
2019-02-22T01:06:25.839Z,77.87
2019-02-22T01:08:53.884Z,75.10
2019-02-22T01:11:21.853Z,81.73
2019-02-22T01:13:49.830Z,77.93
2019-02-22T01:16:17.890Z,78.87
2019-02-22T01:18:45.892Z,79.60
2019-02-22T01:21:13.943Z,77.63
2019-02-22T01:23:41.896Z,77.60
2019-02-22T01:26:09.891Z,77.07
2019-02-22T01:28:37.836Z,83.83
2019-02-22T01:31:05.832Z,80.87
2019-02-22T01:33:33.866Z,74.80
2019-02-22T01:36:01.850Z,78.07
2019-02-22T01:38:29.809Z,76.57
2019-02-22T01:40:57.853Z,76.67
2019-02-22T01:43:25.851Z,79.60
2019-02-22T01:45:53.815Z,78.50
2019-02-22T01:48:21.837Z,81.83
2019-02-22T01:50:49.756Z,76.83
2019-02-22T01:53:18.029Z,74.97
2019-02-22T01:55:46.005Z,75.87
2019-02-22T01:58:13.964Z,74.70
2019-02-22T02:00:41.898Z,75.40
2019-02-22T02:03:09.852Z,79.50
2019-02-22T02:05:37.843Z,74.80
2019-02-22T02:08:05.813Z,75.43
2019-02-22T02:10:33.830Z,71.60
2019-02-22T02:13:01.781Z,74.03
2019-02-22T02:15:29.772Z,74.80
2019-02-22T02:17:57.724Z,75.20
2019-02-22T02:20:25.739Z,73.90
2019-02-22T02:22:53.827Z,75.70
2019-02-22T02:25:21.756Z,80.20
2019-02-22T02:27:49.729Z,75.40
2019-02-22T02:30:17.675Z,80.30
2019-02-22T02:32:45.677Z,77.57
2019-02-22T02:35:13.705Z,75.87
2019-02-22T02:37:41.676Z,75.10
2019-02-22T02:40:09.682Z,74.80
2019-02-22T02:42:37.614Z,80.10
2019-02-22T02:45:05.762Z,74.53
2019-02-22T02:47:33.776Z,73.77
2019-02-22T02:50:01.771Z,75.57
2019-02-22T02:52:30.490Z,75.90
2019-02-22T02:54:58.476Z,72.77
2019-02-22T02:57:26.477Z,72.90
2019-02-22T02:59:54.567Z,75.40
2019-02-22T03:02:31.727Z,74.40
2019-02-22T03:04:59.676Z,73.67
2019-02-22T03:07:41.736Z,74.37
2019-02-22T03:10:09.773Z,76.90
2019-02-22T03:12:37.717Z,73.60
2019-02-22T03:15:06.213Z,78.60
2019-02-22T03:17:34.168Z,79.77
2019-02-22T03:20:02.152Z,74.23
2019-02-22T03:22:30.116Z,81.50
2019-02-22T03:24:58.077Z,78.50
2019-02-22T03:27:26.067Z,82.60
2019-02-22T03:29:54.128Z,80.80
2019-02-22T03:32:22.111Z,82.07
2019-02-22T03:34:50.196Z,77.47
2019-02-22T03:37:18.250Z,85.10
2019-02-22T03:39:46.338Z,79.53
2019-02-22T03:42:14.396Z,79.90
2019-02-22T03:44:42.478Z,77.80
2019-02-22T03:47:10.546Z,79.97
2019-02-22T03:49:38.726Z,78.80
2019-02-22T03:52:25.917Z,80.60
2019-02-22T03:54:53.896Z,78.07
2019-02-22T03:57:21.966Z,76.50
2019-02-22T03:59:51.227Z,78.90
2019-02-22T04:02:19.352Z,77.00
2019-02-22T04:04:47.328Z,76.30
2019-02-22T04:07:15.276Z,83.80
2019-02-22T04:09:43.273Z,85.93
2019-02-22T04:12:11.334Z,80.97
2019-02-22T04:14:39.387Z,82.83
2019-02-22T04:17:07.383Z,82.70
2019-02-22T04:19:35.446Z,80.70
2019-02-22T04:22:03.497Z,80.77
2019-02-22T04:24:31.483Z,81.27
2019-02-22T04:26:59.536Z,79.00
2019-02-22T04:29:27.526Z,79.03
2019-02-22T04:31:55.566Z,79.03
2019-02-22T04:34:23.595Z,78.67
2019-02-22T04:36:51.616Z,76.17
2019-02-22T04:39:19.619Z,77.77
2019-02-22T04:41:57.761Z,78.90
2019-02-22T04:44:17.275Z,74.73
2019-02-22T04:46:45.343Z,80.90
2019-02-22T04:49:13.307Z,75.10
2019-02-22T04:51:41.303Z,76.23
2019-02-22T04:54:09.383Z,80.70
2019-02-22T04:56:37.418Z,84.50
2019-02-22T04:59:05.423Z,78.30
2019-02-22T05:01:33.507Z,84.17
2019-02-22T05:04:01.482Z,82.67
2019-02-22T05:06:29.549Z,77.60
2019-02-22T05:08:57.446Z,80.93
2019-02-22T05:11:25.444Z,85.73
2019-02-22T05:13:53.397Z,82.87
2019-02-22T05:16:21.431Z,84.53
2019-02-22T05:18:49.369Z,84.23
2019-02-22T05:21:17.433Z,77.43
2019-02-22T05:23:45.805Z,78.87
2019-02-22T05:26:13.773Z,83.93
2019-02-22T05:28:41.735Z,81.80
2019-02-22T05:31:09.735Z,91.03
2019-02-22T05:33:37.848Z,83.47
2019-02-22T05:36:05.741Z,84.20
2019-02-22T05:38:33.720Z,86.93
2019-02-22T05:41:01.685Z,77.33
2019-02-22T05:43:29.638Z,73.70
2019-02-22T05:45:57.645Z,71.60
2019-02-22T05:48:25.737Z,67.77
2019-02-22T05:50:53.711Z,66.63
2019-02-22T05:53:21.647Z,67.87
2019-02-22T05:55:49.690Z,66.27
2019-02-22T05:58:17.672Z,67.20
2019-02-22T06:00:45.665Z,66.70
2019-02-22T06:03:13.677Z,67.97
2019-02-22T06:05:41.688Z,66.13
2019-02-22T06:08:09.709Z,66.90
2019-02-22T06:10:37.715Z,65.77
2019-02-22T06:13:05.709Z,67.10
2019-02-22T06:15:33.776Z,65.40
2019-02-22T06:18:01.721Z,67.97
2019-02-22T06:20:29.716Z,65.80
2019-02-22T06:22:57.754Z,66.10
2019-02-22T06:25:25.745Z,67.53
2019-02-22T06:27:53.724Z,65.67
2019-02-22T06:30:21.663Z,65.07
2019-02-22T06:32:49.654Z,65.77
2019-02-22T06:35:17.596Z,65.97
2019-02-22T06:37:45.585Z,65.40
2019-02-22T06:40:13.537Z,66.00
2019-02-22T06:42:45.747Z,65.00
2019-02-22T06:45:11.239Z,65.10
2019-02-22T06:47:39.208Z,65.43
2019-02-22T06:50:07.196Z,67.50
2019-02-22T06:52:35.123Z,65.87
2019-02-22T06:55:03.098Z,65.20
2019-02-22T06:57:31.077Z,65.60
2019-02-22T06:59:59.043Z,66.47
2019-02-22T07:02:27.047Z,65.33
2019-02-22T07:04:54.943Z,65.90
2019-02-22T07:07:22.861Z,65.37
2019-02-22T07:09:50.924Z,65.83
2019-02-22T07:12:40.970Z,65.70
2019-02-22T07:15:09.087Z,65.80
2019-02-22T07:17:37.036Z,66.90
2019-02-22T07:20:05.340Z,66.37
2019-02-22T07:22:33.398Z,66.07
2019-02-22T07:25:01.389Z,66.17
2019-02-22T07:27:29.331Z,65.43
2019-02-22T07:29:57.306Z,65.67
2019-02-22T07:32:25.291Z,65.90
2019-02-22T07:34:53.230Z,65.60
2019-02-22T07:37:21.220Z,66.37
2019-02-22T07:39:49.169Z,67.70
2019-02-22T07:42:17.155Z,67.53
2019-02-22T07:44:45.115Z,68.60
2019-02-22T07:47:13.377Z,65.90
2019-02-22T07:49:41.348Z,66.73
2019-02-22T07:52:09.337Z,65.97
2019-02-22T07:54:37.348Z,65.70
2019-02-22T07:57:05.274Z,65.83
2019-02-22T07:59:33.227Z,66.40
2019-02-22T08:02:01.218Z,66.60
2019-02-22T08:04:29.229Z,67.07
2019-02-22T08:06:57.271Z,66.10
2019-02-22T08:09:25.308Z,67.43
2019-02-22T08:11:53.311Z,67.20
2019-02-22T08:14:21.250Z,66.60
2019-02-22T08:16:49.226Z,67.20
2019-02-22T08:19:17.206Z,70.70
2019-02-22T08:21:45.155Z,68.17
2019-02-22T08:24:13.281Z,69.07
2019-02-22T08:26:41.197Z,68.27
2019-02-22T08:29:09.179Z,73.60
2019-02-22T08:31:37.156Z,68.30
2019-02-22T08:34:05.168Z,67.67
2019-02-22T08:36:33.248Z,66.30
2019-02-22T08:39:01.259Z,69.10
2019-02-22T08:41:30.771Z,66.70
2019-02-22T08:44:00.075Z,66.00
2019-02-22T08:46:28.377Z,65.50
2019-02-22T08:48:56.422Z,65.77
2019-02-22T08:51:24.500Z,68.00
2019-02-22T08:53:52.548Z,65.60
2019-02-22T08:56:20.531Z,66.20
2019-02-22T08:58:48.480Z,66.27
2019-02-22T09:01:16.469Z,65.60
2019-02-22T09:03:50.198Z,66.67
2019-02-22T09:06:14.131Z,65.70
2019-02-22T09:08:42.175Z,66.67
2019-02-22T09:11:10.181Z,66.13
2019-02-22T09:13:43.498Z,66.27
2019-02-22T09:16:07.968Z,71.77
2019-02-22T09:18:35.986Z,66.70
2019-02-22T09:21:04.029Z,65.80
2019-02-22T09:23:32.221Z,69.77
2019-02-22T09:26:00.478Z,68.70
2019-02-22T09:28:28.587Z,66.70
2019-02-22T09:30:56.569Z,67.60
2019-02-22T09:33:24.564Z,65.80
2019-02-22T09:35:52.991Z,65.30
2019-02-22T09:38:21.099Z,65.40
2019-02-22T09:40:49.260Z,65.03
2019-02-22T09:43:17.400Z,65.50
2019-02-22T09:45:46.127Z,66.77
2019-02-22T09:48:14.231Z,65.23
2019-02-22T09:50:42.337Z,66.27
2019-02-22T09:53:10.374Z,67.10
2019-02-22T09:55:38.363Z,66.20
2019-02-22T09:58:06.403Z,65.20
2019-02-22T10:00:34.368Z,65.60
2019-02-22T10:03:02.571Z,66.50
2019-02-22T10:05:30.569Z,65.50
2019-02-22T10:07:59.531Z,65.50
2019-02-22T10:10:27.497Z,64.90
2019-02-22T10:12:55.539Z,65.43
2019-02-22T10:15:23.526Z,65.60
2019-02-22T10:17:51.557Z,64.90
2019-02-22T10:20:19.456Z,65.90
2019-02-22T10:22:47.479Z,65.60
2019-02-22T10:25:15.575Z,64.80
2019-02-22T10:27:43.528Z,65.60
2019-02-22T10:30:11.472Z,65.60
2019-02-22T10:32:39.409Z,66.30
2019-02-22T10:35:07.375Z,66.30
2019-02-22T10:37:35.371Z,66.27
2019-02-22T10:40:04.404Z,66.50
2019-02-22T10:42:32.752Z,68.97
2019-02-22T10:45:00.704Z,66.97
2019-02-22T10:47:28.575Z,65.30
2019-02-22T10:49:56.644Z,65.77
2019-02-22T10:52:24.607Z,65.50
2019-02-22T10:54:52.568Z,65.70
2019-02-22T10:57:20.677Z,66.00
2019-02-22T10:59:48.701Z,66.20
2019-02-22T11:02:16.683Z,65.40
2019-02-22T11:04:44.693Z,66.00
2019-02-22T11:07:12.668Z,67.50
2019-02-22T11:09:40.580Z,65.63
2019-02-22T11:12:08.570Z,65.57
2019-02-22T11:14:36.632Z,65.43
2019-02-22T11:17:04.596Z,66.97
2019-02-22T11:19:32.595Z,64.83
2019-02-22T11:22:00.532Z,66.93
2019-02-22T11:24:28.505Z,65.77
2019-02-22T11:26:56.522Z,66.70
2019-02-22T11:29:24.548Z,67.13
2019-02-22T11:31:52.508Z,66.20
2019-02-22T11:34:20.497Z,69.17
2019-02-22T11:36:48.571Z,67.10
2019-02-22T11:39:16.536Z,66.07
2019-02-22T11:41:44.608Z,68.07
2019-02-22T11:44:12.654Z,65.77
2019-02-22T11:46:40.918Z,66.30
2019-02-22T11:49:08.903Z,66.10
2019-02-22T11:51:36.844Z,66.30
2019-02-22T11:54:04.761Z,65.87
2019-02-22T11:56:32.819Z,67.00
2019-02-22T11:59:00.805Z,67.50
2019-02-22T12:01:28.873Z,66.17
2019-02-22T12:03:56.834Z,66.10
2019-02-22T12:06:24.846Z,65.50
2019-02-22T12:08:52.751Z,65.53
2019-02-22T12:11:20.754Z,65.60
2019-02-22T12:13:48.816Z,64.80
2019-02-22T12:16:16.882Z,65.50
2019-02-22T12:18:44.823Z,67.33
2019-02-22T12:21:12.846Z,66.37
2019-02-22T12:23:40.783Z,65.30
2019-02-22T12:26:08.800Z,66.00
2019-02-22T12:28:36.799Z,65.20
2019-02-22T12:31:05.112Z,65.47
2019-02-22T12:33:33.184Z,65.40
2019-02-22T12:36:01.123Z,65.80
2019-02-22T12:38:29.113Z,65.83
2019-02-22T12:40:57.056Z,65.17
2019-02-22T12:43:25.462Z,69.60
2019-02-22T12:45:53.430Z,67.80
2019-02-22T12:48:21.394Z,68.00
2019-02-22T12:50:49.383Z,65.37
2019-02-22T12:53:17.426Z,66.60
2019-02-22T12:55:45.423Z,65.67
2019-02-22T12:58:13.476Z,66.80
2019-02-22T13:00:41.572Z,65.80
2019-02-22T13:03:09.616Z,66.17
2019-02-22T13:05:37.622Z,66.07
2019-02-22T13:08:06.129Z,72.93
2019-02-22T13:10:34.653Z,65.27
2019-02-22T13:13:02.622Z,97.87
2019-02-22T13:15:30.584Z,70.90
2019-02-22T13:17:58.674Z,65.40
2019-02-22T13:20:26.721Z,72.50
2019-02-22T13:22:54.708Z,65.37
2019-02-22T13:25:22.683Z,65.53
2019-02-22T13:27:50.660Z,65.23
2019-02-22T13:30:18.756Z,71.80
2019-02-22T13:32:47.104Z,64.87
2019-02-22T13:35:15.169Z,65.07
2019-02-22T13:37:43.253Z,69.97
2019-02-22T13:40:12.156Z,67.17
2019-02-22T13:42:40.079Z,65.37
2019-02-22T13:45:08.686Z,65.50
2019-02-22T13:47:36.751Z,65.77
2019-02-22T13:50:05.038Z,65.77
2019-02-22T13:52:33.112Z,66.57
2019-02-22T13:55:01.205Z,65.60
2019-02-22T13:57:30.381Z,68.60
2019-02-22T13:59:58.480Z,65.87
2019-02-22T14:02:26.425Z,67.70
2019-02-22T14:04:54.476Z,66.30
2019-02-22T14:07:22.479Z,66.17
2019-02-22T14:09:51.292Z,65.57
2019-02-22T14:12:19.395Z,66.40
2019-02-22T14:14:47.363Z,68.60
2019-02-22T14:17:15.356Z,68.87
2019-02-22T14:19:43.334Z,65.40
2019-02-22T14:22:11.293Z,65.77
2019-02-22T14:24:39.259Z,65.80
2019-02-22T14:27:07.211Z,65.67
2019-02-22T14:29:35.245Z,66.80
2019-02-22T14:32:03.250Z,67.27
2019-02-22T14:34:31.232Z,67.20
2019-02-22T14:36:59.201Z,71.77
2019-02-22T14:39:27.213Z,68.73
2019-02-22T14:41:55.173Z,70.70
2019-02-22T14:44:23.236Z,72.33
2019-02-22T14:46:51.237Z,67.47
2019-02-22T14:49:19.137Z,70.37
2019-02-22T14:51:47.136Z,82.03
2019-02-22T14:54:15.084Z,70.37
2019-02-22T14:56:43.045Z,66.87
2019-02-22T14:59:11.044Z,66.27
2019-02-22T15:01:39.016Z,69.50
2019-02-22T15:04:07.065Z,66.30
2019-02-22T15:06:35.021Z,67.10
2019-02-22T15:09:04.294Z,66.37
2019-02-22T15:11:32.189Z,66.70
2019-02-22T15:14:00.472Z,66.73
2019-02-22T15:16:47.470Z,65.70
2019-02-22T15:19:15.691Z,66.17
2019-02-22T15:21:43.800Z,65.97
2019-02-22T15:24:11.808Z,66.63
2019-02-22T15:26:39.788Z,65.80
2019-02-22T15:29:07.820Z,66.80
2019-02-22T15:31:36.504Z,65.63
2019-02-22T15:34:05.825Z,72.93
2019-02-22T15:36:33.824Z,67.10
2019-02-22T15:39:01.796Z,69.50
2019-02-22T15:41:29.867Z,70.07
2019-02-22T15:43:59.637Z,65.70
2019-02-22T15:46:29.349Z,65.67
2019-02-22T15:48:59.509Z,67.37
2019-02-22T15:51:29.393Z,65.70
2019-02-22T15:53:59.105Z,65.20
2019-02-22T15:56:29.275Z,67.07
2019-02-22T15:58:57.640Z,66.60
2019-02-22T16:01:27.189Z,66.17
2019-02-22T16:04:09.830Z,66.50
2019-02-22T16:06:39.330Z,66.60
2019-02-22T16:09:08.834Z,66.17
2019-02-22T16:11:39.127Z,65.13
2019-02-22T16:14:08.783Z,66.30
2019-02-22T16:16:36.995Z,67.87
2019-02-22T16:19:05.514Z,66.53
2019-02-22T16:21:33.669Z,65.57
2019-02-22T16:24:01.665Z,66.60
2019-02-22T16:26:31.362Z,77.80
2019-02-22T16:28:59.349Z,64.97
2019-02-22T16:31:27.324Z,69.17
2019-02-22T16:33:55.321Z,68.70
2019-02-22T16:36:23.384Z,69.30
2019-02-22T16:38:51.336Z,68.80
2019-02-22T16:41:19.527Z,69.00
2019-02-22T16:43:47.553Z,66.20
2019-02-22T16:46:15.567Z,67.43
2019-02-22T16:48:43.609Z,66.60
2019-02-22T16:51:11.583Z,66.90
2019-02-22T16:53:40.141Z,65.93
2019-02-22T16:56:08.139Z,66.63
2019-02-22T16:58:36.097Z,65.90
2019-02-22T17:01:04.185Z,66.90
2019-02-22T17:03:32.151Z,67.90
2019-02-22T17:06:02.148Z,67.07
2019-02-22T17:08:31.933Z,65.50
2019-02-22T17:11:01.219Z,67.80
2019-02-22T17:13:31.225Z,65.97
2019-02-22T17:16:00.938Z,67.43
2019-02-22T17:18:30.472Z,68.47
2019-02-22T17:20:58.776Z,70.60
2019-02-22T17:23:27.702Z,66.97
2019-02-22T17:25:55.771Z,70.13
2019-02-22T17:28:23.812Z,67.07
2019-02-22T17:30:51.783Z,66.80
2019-02-22T17:33:20.047Z,67.57
2019-02-22T17:35:48.057Z,66.57
2019-02-22T17:38:16.094Z,66.57
2019-02-22T17:40:44.138Z,66.87
2019-02-22T17:43:12.064Z,67.53
2019-02-22T17:45:40.008Z,66.00
2019-02-22T17:48:07.984Z,68.90
2019-02-22T17:50:35.970Z,66.17
2019-02-22T17:53:03.969Z,66.70
2019-02-22T17:55:32.028Z,66.93
2019-02-22T17:58:00.071Z,67.63
2019-02-22T18:00:28.067Z,66.00
2019-02-22T18:02:56.117Z,67.10
2019-02-22T18:05:24.187Z,67.40
2019-02-22T18:07:52.268Z,68.87
2019-02-22T18:10:20.172Z,67.60
2019-02-22T18:12:48.498Z,66.87
2019-02-22T18:15:16.564Z,66.33
2019-02-22T18:17:44.534Z,65.90
2019-02-22T18:20:12.522Z,66.83
2019-02-22T18:22:40.468Z,66.70
2019-02-22T18:25:08.571Z,66.50
2019-02-22T18:27:36.513Z,65.97
2019-02-22T18:30:04.833Z,67.40
2019-02-22T18:32:32.829Z,66.30
2019-02-22T18:35:00.824Z,66.90
2019-02-22T18:37:28.790Z,67.40
2019-02-22T18:39:56.773Z,68.60
2019-02-22T18:42:24.768Z,67.03
2019-02-22T18:44:52.744Z,65.87
2019-02-22T18:47:20.829Z,66.97
2019-02-22T18:49:49.093Z,67.20
2019-02-22T18:52:18.403Z,66.80
2019-02-22T18:54:46.431Z,66.30
2019-02-22T18:57:14.404Z,68.67
2019-02-22T18:59:42.524Z,66.53
2019-02-22T19:02:10.556Z,66.33
2019-02-22T19:04:38.596Z,68.57
2019-02-22T19:07:06.593Z,66.67
2019-02-22T19:09:34.606Z,68.07
2019-02-22T19:12:02.653Z,74.47
2019-02-22T19:14:30.704Z,66.77
2019-02-22T19:16:58.905Z,69.00
2019-02-22T19:19:27.017Z,66.80
2019-02-22T19:21:55.017Z,68.90
2019-02-22T19:24:23.088Z,66.73
2019-02-22T19:26:51.142Z,70.70
2019-02-22T19:29:19.112Z,68.07
2019-02-22T19:31:47.340Z,68.77
2019-02-22T19:34:15.286Z,68.07
2019-02-22T19:36:43.353Z,67.33
2019-02-22T19:39:11.685Z,68.47
2019-02-22T19:41:39.875Z,66.17
2019-02-22T19:44:08.289Z,66.97
2019-02-22T19:46:36.255Z,67.60
2019-02-22T19:49:04.193Z,67.23
2019-02-22T19:51:32.197Z,66.80
2019-02-22T19:54:00.231Z,67.00
2019-02-22T19:56:28.229Z,67.33
2019-02-22T19:58:56.286Z,66.70
2019-02-22T20:01:24.273Z,67.37
2019-02-22T20:03:52.382Z,66.87
2019-02-22T20:06:20.436Z,66.70
2019-02-22T20:08:48.711Z,68.17
2019-02-22T20:11:16.881Z,67.77
2019-02-22T20:13:44.949Z,66.83
2019-02-22T20:16:12.924Z,69.23
2019-02-22T20:18:40.880Z,67.77
2019-02-22T20:21:09.055Z,67.30
2019-02-22T20:23:37.167Z,65.80
2019-02-22T20:26:05.244Z,67.50
2019-02-22T20:28:35.117Z,68.23
2019-02-22T20:31:02.966Z,70.93
2019-02-22T20:33:31.035Z,67.87
2019-02-22T20:35:59.120Z,68.70
2019-02-22T20:38:27.190Z,69.97
2019-02-22T20:40:55.280Z,66.50
2019-02-22T20:43:23.300Z,67.50
2019-02-22T20:45:51.395Z,67.60
2019-02-22T20:48:19.388Z,69.57
2019-02-22T20:50:47.442Z,68.33
2019-02-22T20:53:15.873Z,67.40
2019-02-22T20:55:44.179Z,67.23
2019-02-22T20:58:12.299Z,66.70
2019-02-22T21:00:40.335Z,67.57
2019-02-22T21:03:08.489Z,66.87
2019-02-22T21:05:36.607Z,67.30
2019-02-22T21:08:04.535Z,69.30
2019-02-22T21:10:32.498Z,71.60
2019-02-22T21:13:00.487Z,68.40
2019-02-22T21:15:28.526Z,67.00
2019-02-22T21:17:56.513Z,67.17
2019-02-22T21:20:24.552Z,67.40
2019-02-22T21:22:52.571Z,68.47
2019-02-22T21:25:20.532Z,66.93
2019-02-22T21:27:48.492Z,66.70
2019-02-22T21:30:16.536Z,67.20
2019-02-22T21:32:44.541Z,67.90
2019-02-22T21:35:12.496Z,66.87
2019-02-22T21:37:40.546Z,68.87
2019-02-22T21:40:08.722Z,68.33
2019-02-22T21:42:36.792Z,70.10
2019-02-22T21:45:04.883Z,68.27
2019-02-22T21:47:32.974Z,67.57
2019-02-22T21:50:00.972Z,66.90
2019-02-22T21:52:29.142Z,70.90
2019-02-22T21:54:57.080Z,78.10
2019-02-22T21:57:25.039Z,69.70
2019-02-22T21:59:53.181Z,70.50
2019-02-22T22:02:21.193Z,66.70
2019-02-22T22:04:49.248Z,67.70
2019-02-22T22:07:17.343Z,70.10
2019-02-22T22:09:45.349Z,66.50
2019-02-22T22:12:13.294Z,67.27
2019-02-22T22:14:41.249Z,67.20
2019-02-22T22:17:09.299Z,68.33
2019-02-22T22:19:37.269Z,67.57
2019-02-22T22:22:05.256Z,67.60
2019-02-22T22:24:33.314Z,68.97
2019-02-22T22:27:01.310Z,69.67
2019-02-22T22:29:29.291Z,68.60
2019-02-22T22:31:57.251Z,68.47
2019-02-22T22:34:25.219Z,68.30
2019-02-22T22:36:53.156Z,67.20
2019-02-22T22:39:21.156Z,70.07
2019-02-22T22:41:49.129Z,71.23
2019-02-22T22:44:17.167Z,69.80
2019-02-22T22:46:45.152Z,69.00
2019-02-22T22:49:13.105Z,67.57
2019-02-22T22:51:41.089Z,68.40
2019-02-22T22:54:09.069Z,71.27
2019-02-22T22:56:37.104Z,71.33
2019-02-22T22:59:05.013Z,70.50
2019-02-22T23:01:34.587Z,71.67
2019-02-22T23:04:02.576Z,73.90
2019-02-22T23:06:30.571Z,70.70
2019-02-22T23:08:58.503Z,73.67
2019-02-22T23:11:26.708Z,69.40
2019-02-22T23:13:54.597Z,69.87
2019-02-22T23:16:22.648Z,69.47
2019-02-22T23:19:01.119Z,72.27
2019-02-22T23:21:20.699Z,70.30
2019-02-22T23:23:48.698Z,69.87
2019-02-22T23:26:16.658Z,71.10
2019-02-22T23:28:44.733Z,70.60
2019-02-22T23:31:12.814Z,71.80
2019-02-22T23:33:40.847Z,71.37
2019-02-22T23:36:08.854Z,70.90
2019-02-22T23:38:36.911Z,73.90
2019-02-22T23:41:04.969Z,75.03
2019-02-22T23:43:32.947Z,71.60
2019-02-22T23:46:00.951Z,76.63
2019-02-22T23:48:28.879Z,70.40
2019-02-22T23:50:56.836Z,70.80
2019-02-22T23:53:24.805Z,70.67
2019-02-22T23:55:52.832Z,72.50
2019-02-22T23:58:20.760Z,71.28
